Time;durP1;ratioP1;P1;durP2;ratioP2;P2;SDS_P1;SDS_P2;PMS_P1;PMS_P2;Temp;Humidity;BMP_temperature;BMP_pressure;BME280_temperature;BME280_humidity;BME280_pressure;Samples;Min_cycle;Max_cycle;Signal;HPM_P1;HPM_P2
2020/12/12 00:00:27;;;;;;;3.33;2.00;;;18.90;27.30;;;;;;5095322;28;20173;-54
2020/12/12 00:02:52;;;;;;;2.33;2.13;;;18.90;26.90;;;;;;5095153;28;20162;-55
2020/12/12 00:05:18;;;;;;;3.10;2.30;;;18.90;26.90;;;;;;5094559;28;20664;-55
2020/12/12 00:07:43;;;;;;;2.50;1.63;;;18.90;26.70;;;;;;5095196;28;20150;-56
2020/12/12 00:10:09;;;;;;;2.60;2.00;;;18.90;26.80;;;;;;5076803;28;20619;-55
2020/12/12 00:12:35;;;;;;;2.20;2.00;;;18.90;26.80;;;;;;5077504;28;20569;-55
2020/12/12 00:15:03;;;;;;;2.60;2.20;;;18.90;26.90;;;;;;5076753;28;20422;-55
2020/12/12 00:17:29;;;;;;;2.60;1.73;;;18.90;26.80;;;;;;5094829;28;20551;-55
2020/12/12 00:19:54;;;;;;;1.93;1.70;;;18.90;26.60;;;;;;5094682;28;20207;-55
2020/12/12 00:22:23;;;;;;;2.53;1.93;;;18.90;23.60;;;;;;5094409;28;20249;-55
2020/12/12 00:24:48;;;;;;;2.97;2.10;;;18.90;23.50;;;;;;5094670;28;20201;-55
2020/12/12 00:27:21;;;;;;;2.10;1.90;;;18.90;23.50;;;;;;5094726;28;20165;-55
2020/12/12 00:29:48;;;;;;;2.05;1.95;;;18.90;23.40;;;;;;5076743;28;20196;-55
2020/12/12 00:32:13;;;;;;;3.42;2.22;;;18.90;23.40;;;;;;5094430;28;20200;-55
2020/12/12 00:34:39;;;;;;;1.80;1.63;;;18.90;23.50;;;;;;5094763;28;20237;-55
2020/12/12 00:37:05;;;;;;;3.03;2.33;;;18.90;23.50;;;;;;5093866;28;20158;-55
2020/12/12 00:39:33;;;;;;;2.90;2.30;;;18.90;23.50;;;;;;5094588;28;20172;-55
2020/12/12 00:41:59;;;;;;;2.10;1.90;;;18.90;23.50;;;;;;5094363;28;20197;-55
2020/12/12 00:44:25;;;;;;;2.03;1.83;;;18.90;23.50;;;;;;5094502;28;20282;-55
2020/12/12 00:46:50;;;;;;;2.43;2.23;;;18.90;23.50;;;;;;5094176;28;20223;-55
2020/12/12 00:49:16;;;;;;;2.10;1.90;;;18.90;23.50;;;;;;5094376;28;20599;-55
2020/12/12 00:51:41;;;;;;;2.93;2.37;;;18.90;23.40;;;;;;5093684;28;20621;-55
2020/12/12 00:54:10;;;;;;;2.37;2.13;;;18.90;23.40;;;;;;5094259;28;20157;-55
2020/12/12 00:56:36;;;;;;;2.17;1.98;;;18.90;23.40;;;;;;5094105;28;20162;-55
2020/12/12 00:59:01;;;;;;;2.80;1.80;;;18.90;23.40;;;;;;5073929;28;20579;-55
2020/12/12 01:01:27;;;;;;;1.73;1.63;;;18.90;23.50;;;;;;5093908;28;20161;-55
2020/12/12 01:03:52;;;;;;;2.47;2.27;;;18.90;23.40;;;;;;5094341;28;20189;-54
2020/12/12 01:06:21;;;;;;;3.10;1.83;;;18.90;23.40;;;;;;5075448;28;20170;-55
2020/12/12 01:08:50;;;;;;;2.78;2.20;;;18.90;23.50;;;;;;5074063;28;20727;-55
2020/12/12 01:11:18;;;;;;;1.90;1.80;;;18.90;23.40;;;;;;5093909;28;20190;-55
2020/12/12 01:13:44;;;;;;;2.65;2.05;;;18.90;23.40;;;;;;5093984;28;20640;-54
2020/12/12 01:16:11;;;;;;;2.10;1.87;;;18.90;23.40;;;;;;5093815;28;20165;-54
2020/12/12 01:18:37;;;;;;;2.83;2.10;;;18.90;23.50;;;;;;5094159;28;20154;-55
2020/12/12 01:21:04;;;;;;;1.83;1.73;;;18.90;23.40;;;;;;5058778;28;20169;-55
2020/12/12 01:23:30;;;;;;;2.17;1.80;;;18.90;23.50;;;;;;5075725;28;20229;-54
2020/12/12 01:25:56;;;;;;;2.70;2.50;;;18.90;23.40;;;;;;5093698;28;20154;-55
2020/12/12 01:28:22;;;;;;;2.60;2.20;;;18.90;23.50;;;;;;5075896;28;20165;-55
2020/12/12 01:30:52;;;;;;;2.70;2.50;;;19.00;23.60;;;;;;5093670;28;20206;-54
2020/12/12 01:33:18;;;;;;;2.00;1.90;;;18.90;23.50;;;;;;5093835;28;20422;-54
2020/12/12 01:35:44;;;;;;;2.53;2.13;;;18.90;23.50;;;;;;5093162;28;20234;-55
2020/12/12 01:38:11;;;;;;;1.83;1.70;;;18.90;23.40;;;;;;5093830;28;20612;-55
2020/12/12 01:40:37;;;;;;;2.05;1.75;;;18.90;24.10;;;;;;5093687;28;20435;-54
2020/12/12 01:43:03;;;;;;;5.38;2.13;;;18.90;24.30;;;;;;5075445;28;20154;-55
2020/12/12 01:45:29;;;;;;;4.30;1.90;;;18.90;24.70;;;;;;5093623;28;20483;-54
2020/12/12 01:47:55;;;;;;;2.08;1.80;;;18.90;25.00;;;;;;5093561;28;20407;-54
2020/12/12 01:50:21;;;;;;;2.35;1.80;;;18.90;24.60;;;;;;5095211;28;20629;-55
2020/12/12 01:52:53;;;;;;;2.92;2.20;;;18.90;24.50;;;;;;5097854;28;20154;-55
2020/12/12 01:55:20;;;;;;;1.88;1.77;;;18.90;24.40;;;;;;5079955;28;20154;-55
2020/12/12 01:57:55;;;;;;;3.58;2.05;;;18.90;24.20;;;;;;5097558;28;20181;-54
2020/12/12 02:00:23;;;;;;;1.60;1.50;;;18.90;24.50;;;;;;5097518;28;20185;-55
2020/12/12 02:02:54;;;;;;;2.65;1.98;;;18.90;24.60;;;;;;5097617;28;20162;-54
2020/12/12 02:05:44;;;;;;;2.25;2.00;;;18.90;24.60;;;;;;5096986;28;20177;-55
2020/12/12 02:08:15;;;;;;;2.90;2.05;;;18.90;24.70;;;;;;5097375;28;20162;-55
2020/12/12 02:10:43;;;;;;;2.50;2.13;;;18.90;24.40;;;;;;5097244;28;20221;-55
2020/12/12 02:13:10;;;;;;;1.67;1.58;;;18.90;24.40;;;;;;5079176;28;20154;-55
2020/12/12 02:15:37;;;;;;;2.38;1.80;;;18.90;24.50;;;;;;5097224;28;20500;-55
2020/12/12 02:18:04;;;;;;;2.67;2.28;;;18.90;24.40;;;;;;5079143;28;20154;-55
2020/12/12 02:20:30;;;;;;;2.65;1.73;;;18.90;24.40;;;;;;5096696;28;20170;-55
2020/12/12 02:22:56;;;;;;;1.50;1.40;;;18.90;24.90;;;;;;5079194;28;20677;-55
2020/12/12 02:25:22;;;;;;;1.95;1.50;;;18.90;25.50;;;;;;5097031;28;20223;-55
2020/12/12 02:27:53;;;;;;;2.43;2.10;;;18.90;25.90;;;;;;5096991;28;20517;-55
2020/12/12 02:30:23;;;;;;;1.67;1.58;;;18.90;26.30;;;;;;5096936;28;20422;-55
2020/12/12 02:32:51;;;;;;;3.47;2.10;;;18.90;26.70;;;;;;5078901;28;20169;-55
2020/12/12 02:35:18;;;;;;;2.10;1.80;;;18.90;26.70;;;;;;5061519;28;20588;-55
2020/12/12 02:37:43;;;;;;;2.25;1.75;;;18.90;26.60;;;;;;5078660;28;20280;-55
2020/12/12 02:40:09;;;;;;;1.90;1.70;;;18.90;27.00;;;;;;5078618;28;20201;-54
2020/12/12 02:42:35;;;;;;;2.27;1.90;;;18.90;26.50;;;;;;5096605;28;20165;-54
2020/12/12 02:45:00;;;;;;;1.80;1.70;;;18.90;26.60;;;;;;5096707;28;20194;-54
2020/12/12 02:47:26;;;;;;;2.60;2.40;;;18.90;26.40;;;;;;5096526;28;20199;-54
2020/12/12 02:50:10;;;;;;;2.00;1.88;;;18.90;26.40;;;;;;5078639;28;20150;-54
2020/12/12 02:52:40;;;;;;;2.35;1.98;;;18.90;26.50;;;;;;5096284;28;20146;-54
2020/12/12 02:55:07;;;;;;;2.53;1.92;;;18.90;26.50;;;;;;5096414;28;20192;-54
2020/12/12 02:57:33;;;;;;;2.00;1.80;;;18.90;26.50;;;;;;5096069;28;20182;-54
2020/12/12 02:59:59;;;;;;;1.63;1.52;;;18.90;26.30;;;;;;5096449;28;20181;-54
2020/12/12 03:02:25;;;;;;;2.10;1.90;;;18.90;26.10;;;;;;5078240;28;20172;-54
2020/12/12 03:04:51;;;;;;;1.88;1.70;;;18.90;26.00;;;;;;5078259;28;20425;-54
2020/12/12 03:07:18;;;;;;;2.20;2.00;;;18.90;25.70;;;;;;5095915;28;20162;-54
2020/12/12 03:09:43;;;;;;;1.75;1.65;;;18.90;25.40;;;;;;5096111;28;20460;-55
2020/12/12 03:12:09;;;;;;;2.40;2.10;;;18.90;25.60;;;;;;5078253;28;20166;-55
2020/12/12 03:14:34;;;;;;;1.93;1.73;;;18.90;25.60;;;;;;5096289;28;20677;-54
2020/12/12 03:17:00;;;;;;;1.70;1.60;;;18.90;24.80;;;;;;5096004;28;20640;-54
2020/12/12 03:19:26;;;;;;;3.60;2.10;;;18.90;23.00;;;;;;5061665;28;20612;-55
2020/12/12 03:21:51;;;;;;;1.97;1.70;;;18.90;22.90;;;;;;5095398;28;20205;-55
2020/12/12 03:24:20;;;;;;;2.10;1.93;;;18.90;22.50;;;;;;5077861;28;20205;-55
2020/12/12 03:26:45;;;;;;;1.67;1.50;;;18.90;22.90;;;;;;5095893;28;20150;-54
2020/12/12 03:29:11;;;;;;;1.93;1.70;;;18.90;22.90;;;;;;5095896;28;20651;-54
2020/12/12 03:31:37;;;;;;;1.60;1.50;;;18.90;22.90;;;;;;5095857;28;20185;-54
2020/12/12 03:34:02;;;;;;;2.87;1.90;;;18.90;22.90;;;;;;5077799;28;20320;-54
2020/12/12 03:36:28;;;;;;;2.13;1.93;;;18.90;22.90;;;;;;5095301;28;20657;-54
2020/12/12 03:38:54;;;;;;;1.90;1.47;;;18.90;22.90;;;;;;5095633;28;20161;-53
2020/12/12 03:41:19;;;;;;;2.37;1.80;;;18.90;22.90;;;;;;5077609;28;20168;-54
2020/12/12 03:43:45;;;;;;;1.80;1.70;;;18.90;22.90;;;;;;5095649;28;20231;-54
2020/12/12 03:46:10;;;;;;;2.80;2.00;;;18.90;22.90;;;;;;5095530;28;20162;-54
2020/12/12 03:48:36;;;;;;;1.47;1.30;;;18.90;22.90;;;;;;5095633;28;20162;-54
2020/12/12 03:51:02;;;;;;;1.77;1.67;;;18.90;22.90;;;;;;5094753;28;20166;-54
2020/12/12 03:53:27;;;;;;;1.80;1.70;;;18.90;22.90;;;;;;5095277;28;20154;-54
2020/12/12 03:55:53;;;;;;;2.23;2.00;;;18.90;22.90;;;;;;5095610;28;20249;-54
2020/12/12 03:58:19;;;;;;;1.70;1.60;;;18.90;22.90;;;;;;5095381;28;20208;-54
2020/12/12 04:00:44;;;;;;;1.97;1.70;;;18.90;22.90;;;;;;5077415;28;20229;-54
2020/12/12 04:03:10;;;;;;;1.90;1.80;;;18.90;22.90;;;;;;5095315;28;20162;-54
2020/12/12 04:05:35;;;;;;;2.33;2.00;;;18.90;22.90;;;;;;5094696;28;20158;-54
2020/12/12 04:08:01;;;;;;;2.13;1.93;;;18.90;22.90;;;;;;5076875;28;20161;-54
2020/12/12 04:10:27;;;;;;;2.10;1.73;;;18.90;22.90;;;;;;5094843;28;20567;-54
2020/12/12 04:12:52;;;;;;;2.13;1.70;;;18.90;22.90;;;;;;5094343;28;20182;-54
2020/12/12 04:15:21;;;;;;;1.50;1.40;;;18.90;22.90;;;;;;5094923;28;20605;-54
2020/12/12 04:17:46;;;;;;;2.42;2.00;;;18.90;22.90;;;;;;5094902;28;20161;-54
2020/12/12 04:20:12;;;;;;;1.87;1.67;;;18.90;22.90;;;;;;5076533;28;20165;-54
2020/12/12 04:22:37;;;;;;;1.90;1.70;;;18.90;22.90;;;;;;5094980;28;20284;-54
2020/12/12 04:25:03;;;;;;;2.60;2.00;;;18.90;22.90;;;;;;5094802;28;20633;-54
2020/12/12 04:27:30;;;;;;;1.97;1.87;;;18.90;22.90;;;;;;5094757;28;20146;-54
2020/12/12 04:29:56;;;;;;;1.77;1.67;;;18.90;22.90;;;;;;5094615;28;20165;-54
2020/12/12 04:32:22;;;;;;;1.60;1.50;;;18.90;22.90;;;;;;5094608;28;20573;-54
2020/12/12 04:34:53;;;;;;;1.83;1.50;;;18.90;22.90;;;;;;5094677;28;20661;-54
2020/12/12 04:37:19;;;;;;;1.65;1.55;;;18.90;22.90;;;;;;5075793;28;20174;-54
2020/12/12 04:39:45;;;;;;;2.50;1.97;;;18.90;22.90;;;;;;5094735;28;20628;-54
2020/12/12 04:42:12;;;;;;;2.33;1.70;;;18.90;23.40;;;;;;5076366;28;20176;-54
2020/12/12 04:44:40;;;;;;;2.00;1.50;;;18.90;22.90;;;;;;5094409;28;20189;-55
2020/12/12 04:47:07;;;;;;;1.70;1.50;;;18.90;22.90;;;;;;5094347;28;20225;-55
2020/12/12 04:49:34;;;;;;;1.70;1.50;;;18.90;22.90;;;;;;5094237;28;20154;-55
2020/12/12 04:52:03;;;;;;;2.03;1.50;;;18.90;22.90;;;;;;5093853;28;20158;-55
2020/12/12 04:54:32;;;;;;;1.60;1.50;;;18.90;22.90;;;;;;5094275;28;20220;-54
2020/12/12 04:57:02;;;;;;;2.08;1.90;;;18.90;22.90;;;;;;5094044;28;20153;-54
2020/12/12 04:59:30;;;;;;;2.13;1.50;;;18.90;22.90;;;;;;5094177;28;20185;-54
2020/12/12 05:02:01;;;;;;;3.30;2.28;;;18.90;22.90;;;;;;5093991;28;20244;-53
2020/12/12 05:04:27;;;;;;;2.58;1.92;;;18.90;22.90;;;;;;5076174;28;20272;-54
2020/12/12 05:06:52;;;;;;;2.42;1.85;;;18.90;22.90;;;;;;5093499;28;20157;-54
2020/12/12 05:09:21;;;;;;;1.70;1.60;;;18.90;22.90;;;;;;5075913;28;20220;-55
2020/12/12 05:11:50;;;;;;;3.03;1.95;;;18.80;22.90;;;;;;5094259;28;20237;-54
2020/12/12 05:14:17;;;;;;;2.03;1.83;;;18.90;22.90;;;;;;5094423;28;20237;-54
2020/12/12 05:16:46;;;;;;;2.13;1.80;;;18.90;22.90;;;;;;5076250;28;20161;-54
2020/12/12 05:19:15;;;;;;;1.50;1.40;;;18.90;22.90;;;;;;5075765;28;20181;-54
2020/12/12 05:21:54;;;;;;;2.10;1.90;;;18.90;22.90;;;;;;5093252;28;20613;-55
2020/12/12 05:24:24;;;;;;;1.88;1.73;;;18.90;22.90;;;;;;5093039;28;20231;-55
2020/12/12 05:26:50;;;;;;;1.83;1.70;;;18.90;22.90;;;;;;5093602;28;20157;-54
2020/12/12 05:29:16;;;;;;;1.70;1.60;;;18.90;22.90;;;;;;5093939;28;20158;-54
2020/12/12 05:31:42;;;;;;;1.95;1.60;;;18.90;22.90;;;;;;5093911;28;20169;-54
2020/12/12 05:34:16;;;;;;;1.60;1.50;;;18.80;22.90;;;;;;5075743;28;20609;-54
2020/12/12 05:36:43;;;;;;;1.90;1.58;;;18.90;22.90;;;;;;5093124;28;20629;-54
2020/12/12 05:39:12;;;;;;;1.98;1.63;;;18.80;22.90;;;;;;5093930;28;20508;-54
2020/12/12 05:41:38;;;;;;;1.88;1.65;;;18.90;22.90;;;;;;5093641;28;20153;-54
2020/12/12 05:44:04;;;;;;;1.50;1.40;;;18.90;23.00;;;;;;5093626;28;20182;-54
2020/12/12 05:46:31;;;;;;;2.00;1.80;;;18.80;22.90;;;;;;5093539;28;20236;-54
2020/12/12 05:48:57;;;;;;;2.40;1.35;;;18.80;22.90;;;;;;5075593;28;20621;-54
2020/12/12 05:51:25;;;;;;;1.38;1.27;;;18.90;23.00;;;;;;5093016;28;20166;-54
2020/12/12 05:53:51;;;;;;;1.73;1.63;;;18.90;23.00;;;;;;5075438;28;20230;-54
2020/12/12 05:56:23;;;;;;;1.53;1.43;;;18.80;22.90;;;;;;5093532;28;20657;-54
2020/12/12 05:58:53;;;;;;;1.88;1.70;;;18.90;23.00;;;;;;5093639;28;20181;-54
2020/12/12 06:01:26;;;;;;;1.48;1.38;;;18.90;23.00;;;;;;5093501;28;20154;-54
2020/12/12 06:04:24;;;;;;;2.15;1.95;;;18.90;23.00;;;;;;5075287;28;20553;-54
2020/12/12 06:06:56;;;;;;;1.52;1.42;;;18.90;23.00;;;;;;5088143;28;20185;-54
2020/12/12 06:09:34;;;;;;;1.60;1.50;;;18.90;23.00;;;;;;5093348;28;20661;-54
2020/12/12 06:12:05;;;;;;;1.95;1.67;;;18.90;23.00;;;;;;5093336;28;20587;-54
2020/12/12 06:14:36;;;;;;;1.65;1.40;;;18.90;23.00;;;;;;5093430;28;20150;-54
2020/12/12 06:17:23;;;;;;;1.50;1.40;;;18.90;23.50;;;;;;5075142;28;20184;-54
2020/12/12 06:19:53;;;;;;;1.63;1.50;;;18.90;23.00;;;;;;5075175;28;20651;-54
2020/12/12 06:22:24;;;;;;;1.65;1.55;;;18.90;23.00;;;;;;5092902;28;20172;-54
2020/12/12 06:25:00;;;;;;;1.75;1.65;;;18.90;23.00;;;;;;5093190;28;20637;-54
2020/12/12 06:27:36;;;;;;;2.00;1.80;;;18.90;23.00;;;;;;5093516;28;20162;-54
2020/12/12 06:30:08;;;;;;;1.80;1.50;;;18.90;23.00;;;;;;5093193;28;20142;-54
2020/12/12 06:32:34;;;;;;;1.70;1.48;;;18.90;23.00;;;;;;5074917;28;20575;-54
2020/12/12 06:34:59;;;;;;;1.50;1.40;;;18.90;23.00;;;;;;5093119;28;20157;-55
2020/12/12 06:37:33;;;;;;;1.60;1.50;;;18.90;23.00;;;;;;5096045;28;20162;-54
2020/12/12 06:40:01;;;;;;;2.10;1.90;;;18.90;23.00;;;;;;5096676;28;20162;-53
2020/12/12 06:42:33;;;;;;;1.88;1.75;;;18.90;23.00;;;;;;5096825;28;20166;-54
2020/12/12 06:45:18;;;;;;;1.80;1.50;;;18.90;23.00;;;;;;5096651;28;20177;-54
2020/12/12 06:47:52;;;;;;;1.50;1.40;;;18.90;23.00;;;;;;5096508;28;20229;-54
2020/12/12 06:50:24;;;;;;;1.70;1.60;;;18.90;23.00;;;;;;5078061;28;20173;-54
2020/12/12 06:52:53;;;;;;;1.40;1.20;;;18.90;23.00;;;;;;5096745;28;20187;-54
2020/12/12 06:55:22;;;;;;;1.40;1.30;;;18.90;23.50;;;;;;5096416;28;20161;-54
2020/12/12 06:57:55;;;;;;;2.75;1.70;;;18.90;23.00;;;;;;5096602;28;20241;-54
2020/12/12 07:00:31;;;;;;;1.48;1.30;;;19.00;23.10;;;;;;5096662;28;20286;-55
2020/12/12 07:03:04;;;;;;;2.10;1.55;;;18.90;22.90;;;;;;5096406;28;20157;-55
2020/12/12 07:05:32;;;;;;;1.48;1.35;;;19.00;23.00;;;;;;5077599;28;20193;-54
2020/12/12 07:08:07;;;;;;;1.83;1.73;;;19.00;23.00;;;;;;5096386;28;20185;-54
2020/12/12 07:10:35;;;;;;;1.65;1.40;;;19.00;23.00;;;;;;5096089;28;20205;-54
2020/12/12 07:13:01;;;;;;;1.65;1.55;;;19.00;23.00;;;;;;5096335;28;20600;-54
2020/12/12 07:15:35;;;;;;;1.35;1.25;;;19.00;23.00;;;;;;5078217;28;20187;-54
2020/12/12 07:18:12;;;;;;;2.25;1.63;;;19.00;23.00;;;;;;5077912;28;20621;-54
2020/12/12 07:20:45;;;;;;;1.58;1.38;;;19.00;22.90;;;;;;5095613;28;20190;-55
2020/12/12 07:23:11;;;;;;;3.15;1.23;;;19.00;22.90;;;;;;5096120;28;20242;-53
2020/12/12 07:25:37;;;;;;;1.70;1.60;;;19.00;23.00;;;;;;5095722;28;20194;-54
2020/12/12 07:28:04;;;;;;;2.33;2.00;;;19.00;22.90;;;;;;5077588;28;20423;-54
2020/12/12 07:30:30;;;;;;;1.98;1.67;;;19.00;22.90;;;;;;5095834;28;20378;-54
2020/12/12 07:32:55;;;;;;;1.40;1.23;;;19.10;23.00;;;;;;5060868;28;20196;-54
2020/12/12 07:35:21;;;;;;;1.63;1.23;;;19.10;23.00;;;;;;5077085;28;20197;-54
2020/12/12 07:37:47;;;;;;;1.50;1.40;;;19.10;23.00;;;;;;5077606;28;20543;-54
2020/12/12 07:40:13;;;;;;;1.40;1.30;;;19.10;22.90;;;;;;5095579;28;20652;-54
2020/12/12 07:42:39;;;;;;;1.97;1.60;;;19.10;22.90;;;;;;5095740;28;20169;-54
2020/12/12 07:48:01;;;;;;;1.20;1.10;;;19.10;22.90;;;;;;5095095;28;20241;-53
2020/12/12 07:50:26;;;;;;;1.50;1.40;;;19.20;22.90;;;;;;5076575;28;20652;-55
2020/12/12 07:52:52;;;;;;;1.90;1.63;;;19.10;22.80;;;;;;5060666;28;20154;-54
2020/12/12 07:55:23;;;;;;;2.10;1.90;;;19.10;22.80;;;;;;5095191;28;20172;-54
2020/12/12 07:57:56;;;;;;;1.63;1.48;;;19.10;22.80;;;;;;5095294;28;20617;-54
2020/12/12 08:00:22;;;;;;;1.60;1.50;;;19.20;22.90;;;;;;5094969;28;20154;-54
2020/12/12 08:02:58;;;;;;;1.27;1.17;;;19.20;22.90;;;;;;5095296;28;20177;-54
2020/12/12 08:05:26;;;;;;;1.77;1.30;;;19.20;22.80;;;;;;5094581;28;20598;-54
2020/12/12 08:07:52;;;;;;;1.40;1.30;;;19.20;22.80;;;;;;5095048;28;20162;-54
2020/12/12 08:10:20;;;;;;;1.50;1.40;;;19.20;22.80;;;;;;5076743;28;20217;-54
2020/12/12 08:12:46;;;;;;;1.50;1.38;;;19.20;22.80;;;;;;5095248;28;20174;-54
2020/12/12 08:15:30;;;;;;;1.83;1.73;;;19.20;22.80;;;;;;5076580;28;20591;-54
2020/12/12 08:17:56;;;;;;;1.55;1.45;;;19.20;22.70;;;;;;5094970;28;20156;-54
2020/12/12 08:20:24;;;;;;;1.43;1.33;;;19.30;22.80;;;;;;5094334;28;20245;-54
2020/12/12 08:22:51;;;;;;;1.92;1.58;;;19.30;22.80;;;;;;5094941;28;20217;-55
2020/12/12 08:25:21;;;;;;;1.30;1.00;;;19.30;22.80;;;;;;5076500;28;20718;-55
2020/12/12 08:27:47;;;;;;;1.90;1.70;;;19.30;22.80;;;;;;5076592;28;20161;-54
2020/12/12 08:30:13;;;;;;;1.33;1.23;;;19.30;22.70;;;;;;5094401;28;20173;-55
2020/12/12 08:32:43;;;;;;;1.30;1.13;;;19.30;22.80;;;;;;5076329;28;20637;-53
2020/12/12 08:35:27;;;;;;;1.58;1.30;;;19.30;22.70;;;;;;5094654;28;20170;-54
2020/12/12 08:38:04;;;;;;;1.58;1.38;;;19.40;22.80;;;;;;5094396;28;20241;-54
2020/12/12 08:40:41;;;;;;;1.48;1.30;;;19.30;22.70;;;;;;5094415;28;20710;-54
2020/12/12 08:43:09;;;;;;;1.80;1.25;;;19.40;22.80;;;;;;5094078;28;20233;-54
2020/12/12 08:45:42;;;;;;;1.40;1.30;;;19.40;22.80;;;;;;5093967;28;20181;-54
2020/12/12 08:48:12;;;;;;;2.20;1.48;;;19.40;22.70;;;;;;5094344;28;20520;-54
2020/12/12 08:50:49;;;;;;;1.38;1.25;;;19.40;22.70;;;;;;5093765;28;20154;-54
2020/12/12 08:53:21;;;;;;;1.73;1.35;;;19.40;22.70;;;;;;5094242;28;20177;-54
2020/12/12 08:56:09;;;;;;;1.45;1.35;;;19.40;22.60;;;;;;5094150;28;20615;-54
2020/12/12 08:58:45;;;;;;;1.60;1.45;;;19.50;22.70;;;;;;5093627;28;20178;-53
2020/12/12 09:01:18;;;;;;;1.50;1.40;;;19.50;22.70;;;;;;5094005;28;20199;-55
2020/12/12 09:03:53;;;;;;;2.15;1.58;;;19.50;22.60;;;;;;5094333;28;20319;-54
2020/12/12 09:06:19;;;;;;;1.90;1.40;;;19.50;22.60;;;;;;5093676;28;20175;-55
2020/12/12 09:08:45;;;;;;;1.47;1.37;;;19.50;22.60;;;;;;5075628;28;20157;-54
2020/12/12 09:11:16;;;;;;;1.57;1.20;;;19.50;22.60;;;;;;5075503;28;20473;-54
2020/12/12 09:13:42;;;;;;;1.38;1.27;;;19.50;22.60;;;;;;5093695;28;20758;-55
2020/12/12 09:16:09;;;;;;;1.80;1.40;;;19.60;22.70;;;;;;5093466;28;20233;-55
2020/12/12 09:18:45;;;;;;;1.58;1.45;;;19.60;22.60;;;;;;5093632;28;20245;-54
2020/12/12 09:21:11;;;;;;;1.55;1.45;;;19.60;22.50;;;;;;5075209;28;20177;-54
2020/12/12 09:23:37;;;;;;;1.90;1.40;;;19.60;22.50;;;;;;5075614;28;20258;-53
2020/12/12 09:26:03;;;;;;;2.00;1.57;;;19.60;22.50;;;;;;5093344;28;20421;-54
2020/12/12 09:28:29;;;;;;;1.42;1.33;;;19.60;22.50;;;;;;5075166;28;20430;-54
2020/12/12 09:30:55;;;;;;;1.37;1.27;;;19.60;22.50;;;;;;5093452;28;20149;-54
2020/12/12 09:33:20;;;;;;;2.27;1.40;;;19.60;22.00;;;;;;5075543;28;20320;-54
2020/12/12 09:35:53;;;;;;;1.70;1.30;;;19.60;22.40;;;;;;5093100;28;20543;-54
2020/12/12 09:38:19;;;;;;;1.50;1.40;;;19.60;22.40;;;;;;5093332;28;20154;-53
2020/12/12 09:40:49;;;;;;;1.30;1.20;;;19.60;22.40;;;;;;5093674;28;20609;-54
2020/12/12 09:43:17;;;;;;;1.63;1.20;;;19.70;22.40;;;;;;5093357;28;20414;-55
2020/12/12 09:45:44;;;;;;;1.67;1.30;;;19.70;22.40;;;;;;5059274;28;20194;-54
2020/12/12 09:48:12;;;;;;;2.17;1.50;;;19.70;22.40;;;;;;5093321;28;20165;-54
2020/12/12 09:50:38;;;;;;;2.50;1.63;;;19.70;22.40;;;;;;5058451;28;20174;-53
2020/12/12 09:53:09;;;;;;;1.63;1.53;;;19.70;22.40;;;;;;5093484;28;20165;-54
2020/12/12 09:55:37;;;;;;;1.55;1.30;;;19.70;22.40;;;;;;5093238;28;20467;-55
2020/12/12 09:58:05;;;;;;;2.25;1.70;;;19.70;22.40;;;;;;5092858;28;20543;-54
2020/12/12 10:00:35;;;;;;;1.58;1.20;;;19.70;22.40;;;;;;5074964;28;20188;-55
2020/12/12 10:03:01;;;;;;;2.80;1.77;;;19.70;22.40;;;;;;5093470;28;20211;-54
2020/12/12 10:05:27;;;;;;;2.15;1.75;;;19.70;22.40;;;;;;5092763;28;20193;-55
2020/12/12 10:07:57;;;;;;;3.00;1.50;;;19.70;22.40;;;;;;5075036;28;20157;-55
2020/12/12 10:10:24;;;;;;;1.60;1.27;;;19.70;22.40;;;;;;5093448;28;20462;-54
2020/12/12 10:12:51;;;;;;;1.85;1.65;;;19.70;22.40;;;;;;5097344;28;20558;-54
2020/12/12 10:15:20;;;;;;;1.90;1.70;;;19.70;22.30;;;;;;5097081;28;20154;-54
2020/12/12 10:17:47;;;;;;;1.98;1.70;;;19.70;22.30;;;;;;5097210;28;20582;-55
2020/12/12 10:20:13;;;;;;;1.80;1.70;;;19.80;22.40;;;;;;5096605;28;20169;-55
2020/12/12 10:22:39;;;;;;;3.00;1.80;;;19.80;22.40;;;;;;5097341;28;20178;-54
2020/12/12 10:25:06;;;;;;;1.85;1.20;;;19.80;22.30;;;;;;5078495;28;20205;-54
2020/12/12 10:27:33;;;;;;;1.73;1.58;;;19.80;22.40;;;;;;5062287;28;20248;-53
2020/12/12 10:29:59;;;;;;;2.80;2.28;;;19.80;22.30;;;;;;5096794;28;20150;-54
2020/12/12 10:32:25;;;;;;;1.58;1.38;;;19.80;22.30;;;;;;5096602;28;20162;-54
2020/12/12 10:34:53;;;;;;;1.40;1.30;;;19.90;22.30;;;;;;5096431;28;20154;-55
2020/12/12 10:37:19;;;;;;;1.60;1.50;;;19.90;22.30;;;;;;5078095;28;20177;-54
2020/12/12 10:42:16;;;;;;;1.50;1.40;;;19.90;22.30;;;;;;5079368;28;20177;-55
2020/12/12 10:44:42;;;;;;;3.20;1.07;;;19.90;22.20;;;;;;5096555;28;20191;-55
2020/12/12 10:47:07;;;;;;;1.57;1.47;;;19.90;22.20;;;;;;5078536;28;20182;-55
2020/12/12 10:49:33;;;;;;;1.90;1.50;;;19.90;22.20;;;;;;5078398;28;20162;-54
2020/12/12 10:51:59;;;;;;;1.63;1.53;;;19.90;22.20;;;;;;5077908;28;20162;-54
2020/12/12 10:54:26;;;;;;;2.60;2.10;;;19.90;22.20;;;;;;5096455;28;20166;-54
2020/12/12 10:56:52;;;;;;;1.48;1.38;;;19.90;22.20;;;;;;5096047;28;20241;-55
2020/12/12 10:59:18;;;;;;;2.08;1.55;;;19.90;22.20;;;;;;5096012;28;20532;-53
2020/12/12 11:01:44;;;;;;;2.07;1.87;;;19.90;22.20;;;;;;5096109;28;20213;-55
2020/12/12 11:04:09;;;;;;;1.40;1.30;;;19.90;22.20;;;;;;5096014;28;20868;-54
2020/12/12 11:06:35;;;;;;;1.50;1.33;;;19.90;22.20;;;;;;5095496;28;20404;-54
2020/12/12 11:09:02;;;;;;;1.83;1.70;;;19.90;22.20;;;;;;5077861;28;20665;-55
2020/12/12 11:11:28;;;;;;;2.15;1.95;;;19.90;22.10;;;;;;5096082;28;20174;-55
2020/12/12 11:13:54;;;;;;;2.40;1.47;;;19.90;22.10;;;;;;5096155;28;20150;-55
2020/12/12 11:16:20;;;;;;;1.73;1.63;;;20.00;22.20;;;;;;5096019;28;20525;-55
2020/12/12 11:18:51;;;;;;;2.08;1.75;;;19.90;22.10;;;;;;5095947;28;20186;-54
2020/12/12 11:21:20;;;;;;;1.83;1.50;;;19.90;22.20;;;;;;5095304;28;20162;-54
2020/12/12 11:23:46;;;;;;;1.50;1.40;;;19.90;22.10;;;;;;5094585;28;20197;-54
2020/12/12 11:26:13;;;;;;;2.00;1.48;;;19.90;22.20;;;;;;5095626;28;20158;-54
2020/12/12 11:28:44;;;;;;;1.70;1.40;;;20.00;22.20;;;;;;5096266;28;20164;-55
2020/12/12 11:31:11;;;;;;;1.60;1.48;;;20.00;22.20;;;;;;5095628;28;20188;-54
2020/12/12 11:33:38;;;;;;;1.70;1.60;;;20.00;22.20;;;;;;5096042;28;20229;-54
2020/12/12 11:38:56;;;;;;;2.00;1.80;;;20.00;22.20;;;;;;5095791;28;20241;-54
2020/12/12 11:42:07;;;;;;;1.98;1.65;;;20.00;22.20;;;;;;5095560;28;20509;-55
2020/12/12 11:46:58;;;;;;;2.42;1.67;;;20.00;22.10;;;;;;5095378;28;20164;-54
2020/12/12 11:49:24;;;;;;;3.10;1.80;;;20.00;22.00;;;;;;5077294;28;20166;-55
2020/12/12 11:51:53;;;;;;;1.83;1.40;;;20.00;22.00;;;;;;5076587;28;20219;-55
2020/12/12 11:54:19;;;;;;;2.45;1.50;;;20.10;22.10;;;;;;5095537;28;20193;-53
2020/12/12 11:56:44;;;;;;;1.63;1.53;;;20.10;22.10;;;;;;5095402;28;20194;-54
2020/12/12 11:59:13;;;;;;;2.70;1.77;;;20.10;22.10;;;;;;5095147;28;20790;-55
2020/12/12 12:01:38;;;;;;;1.55;1.40;;;20.10;22.00;;;;;;5095106;28;20146;-54
2020/12/12 12:04:04;;;;;;;2.30;1.73;;;20.10;22.10;;;;;;5076769;28;20687;-54
2020/12/12 12:06:30;;;;;;;2.43;1.50;;;20.10;22.00;;;;;;5076236;28;20170;-54
2020/12/12 12:11:33;;;;;;;2.78;1.58;;;20.10;22.00;;;;;;5094924;28;20169;-54
2020/12/12 12:14:05;;;;;;;3.08;1.70;;;20.10;22.00;;;;;;5094855;28;20188;-55
2020/12/12 12:16:41;;;;;;;2.33;2.03;;;20.20;22.20;;;;;;5076605;28;20200;-56
2020/12/12 12:19:15;;;;;;;6.80;1.90;;;20.10;22.00;;;;;;5094650;28;20160;-55
2020/12/12 12:21:48;;;;;;;2.67;1.92;;;20.10;22.00;;;;;;5075732;28;20525;-55
2020/12/12 12:24:16;;;;;;;1.83;1.45;;;20.10;22.00;;;;;;5094572;28;20221;-55
2020/12/12 12:26:43;;;;;;;3.72;1.65;;;20.10;22.60;;;;;;5077078;28;20166;-56
2020/12/12 12:29:12;;;;;;;2.00;1.63;;;20.00;22.50;;;;;;5094618;28;20153;-55
2020/12/12 12:31:38;;;;;;;3.00;1.98;;;20.00;22.00;;;;;;5059799;28;20256;-55
2020/12/12 12:34:04;;;;;;;1.52;1.35;;;20.00;22.00;;;;;;5094316;28;20497;-56
2020/12/12 12:36:31;;;;;;;1.90;1.40;;;20.00;22.00;;;;;;5075519;28;20157;-56
2020/12/12 12:38:58;;;;;;;2.50;1.70;;;20.00;22.00;;;;;;5094365;28;20239;-56
2020/12/12 12:41:29;;;;;;;1.95;1.35;;;20.00;22.10;;;;;;5075946;28;20186;-51
2020/12/12 12:44:00;;;;;;;4.35;1.55;;;20.00;22.20;;;;;;5094090;28;20298;-52
2020/12/12 12:46:36;;;;;;;3.35;1.35;;;20.00;22.10;;;;;;5094438;28;20204;-52
2020/12/12 12:49:04;;;;;;;2.20;1.50;;;20.10;22.10;;;;;;5094522;28;20508;-52
2020/12/12 12:51:30;;;;;;;2.50;1.70;;;20.10;22.10;;;;;;5075486;28;20245;-52
2020/12/12 12:53:56;;;;;;;4.03;1.60;;;20.10;22.10;;;;;;5059075;28;20272;-52
2020/12/12 12:56:24;;;;;;;4.80;1.73;;;20.10;22.10;;;;;;5075816;28;20178;-53
2020/12/12 12:58:50;;;;;;;2.85;2.45;;;20.10;22.10;;;;;;5093733;28;20481;-52
2020/12/12 13:01:17;;;;;;;2.15;1.48;;;20.10;22.10;;;;;;5093902;28;20604;-53
2020/12/12 13:03:43;;;;;;;1.48;1.20;;;20.10;22.10;;;;;;5094080;28;20150;-51
2020/12/12 13:06:09;;;;;;;2.50;1.90;;;20.10;22.10;;;;;;5093143;28;20624;-52